Time;durP1;ratioP1;P1;durP2;ratioP2;P2;SDS_P1;SDS_P2;PMS_P1;PMS_P2;Temp;Humidity;BMP_temperature;BMP_pressure;BME280_temperature;BME280_humidity;BME280_pressure;Samples;Min_cycle;Max_cycle;Signal;HPM_P1;HPM_P2
2022/01/25 00:24:16;;;;;;;85.80;40.50;;;1.90;99.90;;;;;;5053390;28;20205;-62
2022/01/25 00:24:32;;;;;;;35.93;20.53;;;1.80;99.90;;;;;;5052137;28;20263;-61
2022/01/25 00:27:12;;;;;;;25.97;16.53;;;1.80;99.90;;;;;;5053052;28;20696;-61
2022/01/25 00:29:56;;;;;;;26.93;15.33;;;1.80;99.90;;;;;;5053163;28;20240;-63
2022/01/25 00:32:23;;;;;;;25.00;13.23;;;1.80;99.90;;;;;;5052803;28;20216;-63
2022/01/25 00:34:50;;;;;;;20.47;13.30;;;1.80;99.90;;;;;;5053378;28;20257;-63
2022/01/25 00:37:16;;;;;;;19.90;12.97;;;1.80;99.90;;;;;;5052892;28;20688;-63
2022/01/25 00:39:44;;;;;;;16.90;12.03;;;1.70;99.90;;;;;;5052858;28;20222;-63
2022/01/25 00:42:11;;;;;;;17.30;12.03;;;1.70;99.90;;;;;;5052587;28;20445;-61
2022/01/25 00:44:40;;;;;;;17.20;12.10;;;1.70;99.90;;;;;;5052705;28;20201;-62
2022/01/25 00:47:08;;;;;;;19.00;12.57;;;1.60;99.90;;;;;;5052588;28;20579;-60
2022/01/25 00:49:38;;;;;;;19.60;11.73;;;1.50;99.90;;;;;;5052443;28;20221;-61
2022/01/25 00:52:19;;;;;;;20.33;13.00;;;1.50;99.90;;;;;;5052340;28;20677;-62
2022/01/25 00:54:48;;;;;;;19.57;12.37;;;1.40;99.90;;;;;;5052707;28;20297;-63
2022/01/25 00:57:15;;;;;;;17.83;13.30;;;1.30;99.90;;;;;;5052571;28;20216;-61
2022/01/25 00:59:42;;;;;;;17.77;12.07;;;1.20;99.90;;;;;;5052509;28;20277;-63
2022/01/25 01:02:10;;;;;;;16.70;11.73;;;1.10;99.90;;;;;;5052247;28;20259;-62
2022/01/25 01:04:39;;;;;;;18.10;11.67;;;1.10;99.90;;;;;;5052611;28;20216;-62
2022/01/25 01:07:07;;;;;;;16.13;11.83;;;1.10;99.90;;;;;;5052516;28;20279;-62
2022/01/25 01:09:37;;;;;;;17.83;12.20;;;1.10;99.90;;;;;;5052187;28;20267;-62
2022/01/25 01:12:11;;;;;;;17.87;12.43;;;1.10;99.90;;;;;;5052126;28;20237;-63
2022/01/25 01:15:03;;;;;;;19.03;13.60;;;1.10;99.90;;;;;;5052374;28;20200;-62
2022/01/25 01:31:54;;;;;;;20.40;13.90;;;0.90;99.90;;;;;;4990544;28;20210;-62
2022/01/25 01:34:47;;;;;;;21.70;14.37;;;0.80;99.90;;;;;;5043455;28;20300;-62
2022/01/25 01:37:47;;;;;;;20.70;12.97;;;0.80;99.90;;;;;;5052401;28;20210;-62
2022/01/25 01:43:12;;;;;;;24.20;15.43;;;0.80;99.90;;;;;;5025653;28;20200;-62
2022/01/25 01:45:50;;;;;;;23.23;14.80;;;0.90;99.90;;;;;;5051805;28;20209;-62
2022/01/25 01:48:27;;;;;;;21.73;14.23;;;0.80;99.90;;;;;;5051760;28;20708;-62
2022/01/25 01:50:54;;;;;;;24.17;16.57;;;0.80;99.90;;;;;;5051870;28;20229;-63
2022/01/25 01:53:21;;;;;;;18.03;12.63;;;0.80;99.90;;;;;;5051529;28;20205;-61
2022/01/25 01:55:48;;;;;;;17.47;12.20;;;0.80;99.90;;;;;;5051810;28;20268;-62
2022/01/25 01:58:15;;;;;;;17.33;12.23;;;0.70;99.90;;;;;;5051586;28;20221;-60
2022/01/25 02:00:46;;;;;;;18.27;12.63;;;0.70;99.90;;;;;;5051650;28;20284;-60
2022/01/25 02:03:14;;;;;;;20.70;14.20;;;0.70;99.90;;;;;;5051724;28;20641;-60
2022/01/25 02:05:41;;;;;;;18.73;13.07;;;0.80;99.90;;;;;;5051805;28;20685;-61
2022/01/25 02:08:08;;;;;;;19.07;12.63;;;0.80;99.90;;;;;;5051475;28;20379;-61
2022/01/25 02:10:36;;;;;;;19.33;12.97;;;0.80;99.90;;;;;;5051429;28;20233;-62
2022/01/25 02:13:05;;;;;;;20.07;14.20;;;0.80;99.90;;;;;;5051596;28;20213;-63
2022/01/25 02:15:32;;;;;;;22.17;13.37;;;0.80;99.90;;;;;;5051743;28;20649;-61
2022/01/25 02:23:27;;;;;;;22.87;14.13;;;0.70;99.90;;;;;;5051172;28;20208;-61
2022/01/25 02:25:57;;;;;;;19.73;13.63;;;0.70;99.90;;;;;;5051584;28;20201;-61
2022/01/25 02:28:25;;;;;;;20.27;13.73;;;0.60;99.90;;;;;;5051725;28;20225;-62
2022/01/25 02:30:52;;;;;;;19.33;13.60;;;0.60;99.90;;;;;;5051512;28;20275;-61
2022/01/25 02:33:19;;;;;;;20.57;14.33;;;0.70;99.90;;;;;;5051969;28;20201;-61
2022/01/25 02:35:47;;;;;;;21.63;14.40;;;0.70;99.90;;;;;;5051281;28;20666;-61
2022/01/25 02:38:15;;;;;;;20.67;13.90;;;0.70;99.90;;;;;;5051546;28;20280;-62
2022/01/25 02:40:41;;;;;;;19.80;13.67;;;0.70;99.90;;;;;;5051520;28;20205;-61
2022/01/25 02:43:08;;;;;;;20.47;14.13;;;0.70;99.90;;;;;;5051187;28;20593;-61
2022/01/25 02:45:36;;;;;;;20.77;13.93;;;0.80;99.90;;;;;;5051418;28;20213;-61
2022/01/25 02:50:51;;;;;;;22.70;13.67;;;0.70;99.90;;;;;;5055206;28;20603;-61
2022/01/25 02:53:18;;;;;;;21.73;14.63;;;0.80;99.90;;;;;;5054930;28;20730;-61
2022/01/25 02:55:45;;;;;;;21.27;14.63;;;0.80;99.90;;;;;;5055019;28;20214;-61
2022/01/25 02:58:11;;;;;;;22.73;15.37;;;0.80;99.90;;;;;;5054861;28;20226;-62
2022/01/25 03:00:38;;;;;;;19.83;14.17;;;0.90;99.90;;;;;;5054727;28;20555;-62
2022/01/25 03:03:05;;;;;;;22.23;14.27;;;0.80;99.90;;;;;;5054701;28;20209;-62
2022/01/25 03:05:32;;;;;;;22.93;14.33;;;0.90;99.90;;;;;;5054587;28;20260;-62
2022/01/25 03:08:00;;;;;;;21.73;14.77;;;0.90;99.90;;;;;;5054618;28;20241;-61
2022/01/25 03:10:36;;;;;;;22.57;15.27;;;0.90;99.90;;;;;;5054647;28;20229;-61
2022/01/25 03:13:06;;;;;;;22.57;15.47;;;0.90;99.90;;;;;;5054392;28;20207;-61
2022/01/25 03:15:54;;;;;;;21.27;14.73;;;0.90;99.90;;;;;;5054896;28;20212;-61
2022/01/25 03:21:15;;;;;;;21.20;14.37;;;0.90;99.90;;;;;;5050777;28;20229;-62
2022/01/25 03:23:44;;;;;;;22.83;15.10;;;1.00;99.90;;;;;;5054643;28;20300;-62
2022/01/25 03:26:11;;;;;;;23.17;15.30;;;1.10;99.90;;;;;;5054536;28;20205;-62
2022/01/25 03:28:38;;;;;;;22.77;15.10;;;1.10;99.90;;;;;;5054320;28;20233;-61
2022/01/25 03:31:05;;;;;;;21.17;14.40;;;1.10;99.90;;;;;;5054270;28;20645;-62
2022/01/25 03:33:32;;;;;;;19.87;14.43;;;1.10;99.90;;;;;;5053987;28;20217;-61
2022/01/25 03:35:58;;;;;;;21.77;15.10;;;1.00;99.90;;;;;;5054230;28;20255;-62
2022/01/25 03:38:25;;;;;;;23.50;14.40;;;1.00;99.90;;;;;;5053987;28;20221;-61
2022/01/25 03:40:53;;;;;;;24.60;15.30;;;1.00;99.90;;;;;;5054012;28;20623;-62
2022/01/25 03:43:20;;;;;;;22.77;14.13;;;0.90;99.90;;;;;;5053801;28;20617;-61
2022/01/25 03:45:58;;;;;;;18.83;13.63;;;0.80;99.90;;;;;;5053917;28;20205;-61
2022/01/25 03:51:09;;;;;;;22.37;14.40;;;0.50;99.90;;;;;;5053841;28;20248;-61
2022/01/25 03:53:36;;;;;;;18.93;14.13;;;0.40;99.90;;;;;;5053744;28;20626;-61
2022/01/25 03:56:05;;;;;;;21.77;14.67;;;0.40;99.90;;;;;;5053926;28;20621;-61
2022/01/25 03:58:31;;;;;;;22.63;15.43;;;0.40;99.90;;;;;;5053713;28;20259;-61
2022/01/25 04:00:58;;;;;;;22.77;15.23;;;0.50;99.90;;;;;;5053586;28;20198;-62
2022/01/25 04:03:30;;;;;;;21.03;14.97;;;0.50;99.90;;;;;;5053609;28;20209;-61
2022/01/25 04:05:58;;;;;;;22.10;14.50;;;0.50;99.90;;;;;;5053685;28;20210;-61
2022/01/25 04:08:25;;;;;;;20.70;14.67;;;0.50;99.90;;;;;;5053500;28;20234;-61
2022/01/25 04:10:51;;;;;;;22.37;15.10;;;0.50;99.90;;;;;;5053471;28;20226;-61
2022/01/25 04:13:19;;;;;;;21.83;15.07;;;0.50;99.90;;;;;;5053194;28;20205;-61
2022/01/25 04:15:47;;;;;;;21.73;14.67;;;0.50;99.90;;;;;;5053224;28;20214;-61
2022/01/25 04:18:28;;;;;;;22.47;15.50;;;0.50;99.90;;;;;;5053338;28;20611;-61
2022/01/25 04:21:01;;;;;;;23.40;16.23;;;0.50;99.90;;;;;;5053309;28;20592;-61
2022/01/25 04:26:12;;;;;;;24.50;15.37;;;0.30;99.90;;;;;;5053221;28;20204;-61
2022/01/25 04:28:40;;;;;;;22.00;15.73;;;0.30;99.90;;;;;;5052957;28;20791;-61
2022/01/25 04:31:07;;;;;;;26.40;15.63;;;0.20;99.90;;;;;;5052904;28;20702;-61
2022/01/25 04:33:42;;;;;;;24.30;15.57;;;0.20;99.90;;;;;;5052896;28;20647;-61
2022/01/25 04:36:27;;;;;;;24.20;16.33;;;0.20;99.90;;;;;;5053008;28;20217;-61
2022/01/25 04:49:54;;;;;;;22.53;16.67;;;0.40;99.90;;;;;;5052798;28;20893;-61
2022/01/25 04:52:25;;;;;;;24.03;16.50;;;0.40;99.90;;;;;;5052573;28;20294;-61
2022/01/25 04:55:00;;;;;;;26.47;18.43;;;0.40;99.90;;;;;;5052841;28;20237;-61
2022/01/25 04:57:40;;;;;;;27.27;19.40;;;0.40;99.90;;;;;;5052530;28;20233;-61
2022/01/25 05:00:16;;;;;;;27.67;18.73;;;0.40;99.90;;;;;;5052570;28;20518;-61
2022/01/25 05:02:49;;;;;;;28.70;18.00;;;0.40;99.90;;;;;;5052595;28;20209;-61
2022/01/25 05:05:20;;;;;;;25.87;16.73;;;0.50;99.90;;;;;;5052577;28;20201;-61
2022/01/25 05:07:57;;;;;;;24.27;17.77;;;0.50;99.90;;;;;;5052466;28;20574;-62
2022/01/25 05:10:24;;;;;;;24.23;16.67;;;0.50;99.90;;;;;;5052039;28;20255;-60
2022/01/25 05:12:54;;;;;;;23.47;16.07;;;0.60;99.90;;;;;;5052117;28;20206;-60
2022/01/25 05:15:27;;;;;;;25.33;16.37;;;0.60;99.90;;;;;;5052392;28;20212;-60
2022/01/25 05:18:10;;;;;;;22.97;16.27;;;0.60;99.90;;;;;;5052116;28;20237;-61
2022/01/25 05:23:30;;;;;;;25.17;17.00;;;0.60;99.90;;;;;;5015978;28;20205;-60
2022/01/25 05:25:57;;;;;;;25.03;16.37;;;0.60;99.90;;;;;;5052016;28;20206;-60
2022/01/25 05:28:23;;;;;;;26.27;16.53;;;0.60;99.90;;;;;;5051964;28;20294;-60
2022/01/25 05:30:52;;;;;;;25.90;16.90;;;0.60;99.90;;;;;;5052212;28;20229;-61
2022/01/25 05:33:18;;;;;;;25.10;16.20;;;0.60;99.90;;;;;;5051770;28;20559;-61
2022/01/25 05:35:45;;;;;;;24.60;16.90;;;0.60;99.90;;;;;;5052030;28;20278;-60
2022/01/25 05:38:11;;;;;;;28.03;17.43;;;0.60;99.90;;;;;;5051772;28;20229;-60
2022/01/25 05:40:45;;;;;;;25.13;16.70;;;0.60;99.90;;;;;;5051851;28;20259;-60
2022/01/25 05:46:10;;;;;;;24.93;16.50;;;0.50;99.90;;;;;;5051705;28;20580;-60
2022/01/25 05:48:39;;;;;;;27.13;17.67;;;0.60;99.90;;;;;;5051779;28;20245;-60
2022/01/25 05:51:06;;;;;;;24.93;16.37;;;0.60;99.90;;;;;;5051693;28;20275;-60
2022/01/25 05:53:33;;;;;;;25.63;16.67;;;0.60;99.90;;;;;;5051418;28;20209;-60
2022/01/25 05:56:00;;;;;;;27.47;17.13;;;0.60;99.90;;;;;;5051933;28;20336;-61
2022/01/25 05:58:26;;;;;;;28.27;17.90;;;0.60;99.90;;;;;;5051530;28;20632;-60
2022/01/25 06:00:53;;;;;;;29.27;18.87;;;0.70;99.90;;;;;;5051565;28;20205;-61
2022/01/25 06:03:21;;;;;;;26.97;16.53;;;0.70;99.90;;;;;;5051461;28;20229;-60
2022/01/25 06:05:48;;;;;;;26.67;17.23;;;0.70;99.90;;;;;;5052088;28;20220;-60
2022/01/25 06:08:15;;;;;;;25.60;16.20;;;0.60;99.90;;;;;;5051651;28;20291;-60
2022/01/25 06:10:42;;;;;;;25.67;16.40;;;0.60;99.90;;;;;;5051819;28;20206;-61
2022/01/25 06:13:09;;;;;;;28.17;18.10;;;0.60;99.90;;;;;;5051711;28;20267;-61
2022/01/25 06:15:36;;;;;;;26.57;17.03;;;0.60;99.90;;;;;;5051650;28;20205;-61
2022/01/25 06:18:02;;;;;;;27.27;16.80;;;0.60;99.90;;;;;;5051462;28;20233;-61
2022/01/25 06:20:32;;;;;;;23.20;16.47;;;0.60;99.90;;;;;;5051952;28;20625;-61
2022/01/25 06:22:59;;;;;;;24.80;16.30;;;0.60;99.90;;;;;;5054765;28;20209;-61
2022/01/25 06:25:26;;;;;;;24.70;17.03;;;0.60;99.90;;;;;;5055748;28;20205;-61
2022/01/25 06:27:52;;;;;;;25.40;16.40;;;0.60;99.90;;;;;;5055651;28;20279;-61
2022/01/25 06:30:21;;;;;;;33.10;20.63;;;0.60;99.90;;;;;;5055269;28;20209;-61
2022/01/25 06:32:48;;;;;;;25.13;15.53;;;0.70;99.90;;;;;;5055205;28;20221;-61
2022/01/25 06:35:17;;;;;;;22.67;15.23;;;0.70;99.90;;;;;;5055620;28;20216;-61
2022/01/25 06:37:46;;;;;;;25.00;15.90;;;0.70;99.90;;;;;;5055310;28;20267;-61
2022/01/25 06:40:13;;;;;;;24.80;16.37;;;0.70;99.90;;;;;;5055077;28;20237;-61
2022/01/25 06:42:40;;;;;;;24.33;16.77;;;0.70;99.90;;;;;;5054741;28;20693;-61
2022/01/25 06:45:12;;;;;;;23.23;15.07;;;0.70;99.90;;;;;;5054929;28;20636;-61
2022/01/25 06:47:39;;;;;;;26.40;16.33;;;0.60;99.90;;;;;;5054669;28;20216;-61
2022/01/25 06:50:07;;;;;;;25.63;16.43;;;0.60;99.90;;;;;;5054713;28;20665;-61
2022/01/25 06:52:36;;;;;;;25.50;15.93;;;0.60;99.90;;;;;;5054376;28;20688;-61
2022/01/25 06:55:05;;;;;;;25.27;16.37;;;0.60;99.90;;;;;;5054868;28;20209;-61
2022/01/25 06:57:32;;;;;;;22.50;15.73;;;0.50;99.90;;;;;;5054854;28;20260;-61
2022/01/25 06:59:59;;;;;;;25.40;17.03;;;0.50;99.90;;;;;;5055170;28;20202;-61
2022/01/25 07:02:26;;;;;;;24.60;16.07;;;0.50;99.90;;;;;;5054469;28;20608;-61
2022/01/25 07:04:52;;;;;;;23.07;15.97;;;0.50;99.90;;;;;;5054913;28;20232;-61
2022/01/25 07:07:19;;;;;;;25.43;16.70;;;0.40;99.90;;;;;;5054523;28;20610;-61
2022/01/25 07:09:46;;;;;;;26.70;16.70;;;0.50;99.90;;;;;;5054520;28;20237;-61
2022/01/25 07:12:14;;;;;;;24.70;15.87;;;0.50;99.90;;;;;;5054318;28;20222;-61
2022/01/25 07:14:41;;;;;;;25.57;15.97;;;0.50;99.90;;;;;;5054057;28;20216;-61
2022/01/25 07:17:08;;;;;;;23.87;16.70;;;0.50;99.90;;;;;;5054431;28;20267;-61
2022/01/25 07:19:34;;;;;;;24.40;15.50;;;0.50;99.90;;;;;;5054496;28;20221;-61
2022/01/25 07:22:01;;;;;;;25.27;16.37;;;0.50;99.90;;;;;;5054511;28;20201;-60
2022/01/25 07:24:28;;;;;;;27.17;17.17;;;0.50;99.90;;;;;;5054344;28;20201;-61
2022/01/25 07:26:54;;;;;;;26.30;17.03;;;0.50;99.90;;;;;;5054254;28;20209;-61
2022/01/25 07:29:22;;;;;;;23.93;16.10;;;0.50;99.90;;;;;;5054044;28;20252;-61
2022/01/25 07:31:49;;;;;;;23.87;16.07;;;0.40;99.90;;;;;;5054085;28;20291;-61
2022/01/25 07:34:16;;;;;;;24.60;16.90;;;0.40;99.90;;;;;;5053872;28;20240;-61
2022/01/25 07:36:43;;;;;;;25.13;16.30;;;0.40;99.90;;;;;;5054179;28;20627;-61
2022/01/25 07:39:09;;;;;;;26.83;16.60;;;0.50;99.90;;;;;;5053916;28;20225;-61
2022/01/25 07:41:36;;;;;;;26.90;17.40;;;0.70;99.90;;;;;;5054167;28;20688;-61
2022/01/25 07:44:04;;;;;;;26.97;17.30;;;0.70;99.90;;;;;;5053526;28;20688;-61
2022/01/25 07:46:33;;;;;;;32.83;19.67;;;0.70;99.90;;;;;;5054348;28;20677;-61
2022/01/25 07:49:00;;;;;;;26.13;18.50;;;0.60;99.90;;;;;;5053713;28;20291;-61
2022/01/25 07:51:28;;;;;;;26.57;18.47;;;0.60;99.90;;;;;;5053707;28;20218;-61
2022/01/25 07:53:55;;;;;;;31.73;19.20;;;0.60;99.90;;;;;;5053492;28;20205;-60
2022/01/25 07:56:22;;;;;;;29.23;19.17;;;0.70;99.90;;;;;;5053782;28;20515;-61
2022/01/25 07:58:49;;;;;;;27.27;18.00;;;0.80;99.90;;;;;;5053824;28;20255;-61
2022/01/25 08:01:16;;;;;;;26.73;18.07;;;0.80;99.90;;;;;;5055252;28;20217;-61
2022/01/25 08:03:45;;;;;;;26.50;18.13;;;0.80;99.90;;;;;;5053963;28;20256;-62
2022/01/25 08:06:12;;;;;;;26.67;17.93;;;0.90;99.90;;;;;;5054084;28;20623;-60
2022/01/25 08:08:40;;;;;;;27.13;17.17;;;1.00;99.90;;;;;;5053329;28;20261;-61
2022/01/25 08:11:07;;;;;;;25.73;16.63;;;1.30;99.90;;;;;;5053243;28;20213;-62
2022/01/25 08:13:36;;;;;;;25.50;16.80;;;1.40;99.90;;;;;;5053071;28;20661;-61
2022/01/25 08:16:02;;;;;;;25.60;16.50;;;1.60;99.90;;;;;;5053465;28;20216;-60
2022/01/25 08:18:29;;;;;;;27.90;16.30;;;1.50;99.90;;;;;;5053308;28;20225;-60
2022/01/25 08:20:57;;;;;;;25.13;16.27;;;1.50;99.90;;;;;;5053261;28;20213;-61
2022/01/25 08:23:24;;;;;;;24.10;16.07;;;1.60;99.90;;;;;;5052928;28;20670;-61
2022/01/25 08:25:51;;;;;;;25.67;15.87;;;1.70;99.90;;;;;;5052969;28;20229;-60
2022/01/25 08:28:17;;;;;;;26.20;16.73;;;1.90;99.90;;;;;;5053067;28;20231;-60
2022/01/25 08:30:44;;;;;;;24.70;15.83;;;2.10;99.90;;;;;;5052978;28;20688;-62
2022/01/25 08:33:10;;;;;;;23.77;16.17;;;2.30;99.90;;;;;;5052507;28;20255;-62
2022/01/25 08:35:37;;;;;;;22.37;15.93;;;2.50;99.90;;;;;;5053420;28;20657;-62
2022/01/25 08:38:05;;;;;;;23.63;15.60;;;2.90;99.90;;;;;;5052707;28;20233;-62
2022/01/25 08:40:33;;;;;;;24.93;16.77;;;2.70;99.90;;;;;;5053048;28;20209;-62
2022/01/25 08:43:00;;;;;;;23.03;15.00;;;2.90;99.90;;;;;;5052591;28;20202;-62
2022/01/25 08:45:27;;;;;;;27.37;14.60;;;3.10;99.90;;;;;;5052078;28;20668;-62
2022/01/25 08:47:54;;;;;;;20.87;14.60;;;3.10;99.90;;;;;;5052818;28;20248;-62
2022/01/25 08:50:20;;;;;;;19.90;14.60;;;3.30;99.90;;;;;;5052591;28;20583;-62
2022/01/25 08:52:47;;;;;;;22.07;14.80;;;3.50;99.90;;;;;;5052309;28;20373;-62
2022/01/25 08:55:15;;;;;;;34.63;22.03;;;3.60;99.90;;;;;;5052516;28;20558;-62
2022/01/25 08:57:42;;;;;;;32.40;22.20;;;3.70;99.90;;;;;;5052315;28;20657;-62
2022/01/25 09:00:11;;;;;;;24.17;15.10;;;3.80;99.90;;;;;;5052083;28;20259;-62
2022/01/25 09:02:39;;;;;;;21.93;14.93;;;3.80;99.90;;;;;;5052110;28;20681;-62
2022/01/25 09:05:07;;;;;;;22.27;14.73;;;3.80;99.90;;;;;;5052226;28;20665;-62
2022/01/25 09:07:34;;;;;;;21.07;14.63;;;3.80;99.90;;;;;;5052135;28;20209;-62
2022/01/25 09:10:00;;;;;;;21.97;15.97;;;3.80;99.90;;;;;;5052468;28;20212;-62
2022/01/25 09:12:28;;;;;;;20.10;14.47;;;4.00;99.90;;;;;;5052168;28;20221;-62
2022/01/25 09:14:55;;;;;;;22.07;14.60;;;4.10;99.90;;;;;;5052059;28;20201;-62
2022/01/25 09:17:22;;;;;;;20.73;14.93;;;4.30;99.90;;;;;;5052229;28;20210;-61
2022/01/25 09:19:48;;;;;;;21.97;14.60;;;4.40;99.90;;;;;;5051849;28;20256;-62
2022/01/25 09:22:15;;;;;;;21.47;15.27;;;4.60;99.90;;;;;;5051785;28;20670;-62
2022/01/25 09:24:41;;;;;;;21.13;14.80;;;4.60;99.90;;;;;;5051805;28;20259;-62
2022/01/25 09:27:08;;;;;;;20.90;15.73;;;4.30;99.90;;;;;;5051904;28;20732;-61
2022/01/25 09:29:36;;;;;;;21.40;15.33;;;4.30;99.90;;;;;;5051902;28;20237;-61
2022/01/25 09:32:04;;;;;;;24.17;16.37;;;4.50;99.90;;;;;;5051727;28;20279;-61
2022/01/25 09:34:31;;;;;;;21.73;16.43;;;4.70;99.90;;;;;;5051496;28;20216;-61
2022/01/25 09:36:57;;;;;;;24.93;15.90;;;4.80;99.90;;;;;;5051901;28;20209;-62
2022/01/25 09:39:24;;;;;;;22.70;16.63;;;4.80;99.90;;;;;;5051730;28;20236;-62
2022/01/25 09:41:51;;;;;;;25.13;17.57;;;4.70;99.90;;;;;;5051557;28;20553;-62
2022/01/25 09:44:19;;;;;;;21.80;15.70;;;4.80;99.90;;;;;;5051751;28;20232;-61
2022/01/25 09:46:47;;;;;;;21.27;15.03;;;5.00;99.90;;;;;;5051987;28;20210;-62
2022/01/25 09:49:16;;;;;;;23.80;16.07;;;5.10;99.90;;;;;;5052185;28;20232;-61
2022/01/25 09:51:44;;;;;;;22.27;14.97;;;5.20;99.90;;;;;;5052857;28;20206;-62
2022/01/25 09:54:10;;;;;;;22.03;14.47;;;5.30;99.90;;;;;;5051947;28;20279;-61
2022/01/25 09:56:37;;;;;;;21.67;15.43;;;5.50;99.90;;;;;;5056701;28;20213;-62
2022/01/25 09:59:04;;;;;;;25.07;16.27;;;5.40;99.90;;;;;;5058521;28;20228;-62
2022/01/25 10:01:32;;;;;;;25.07;15.60;;;5.10;99.90;;;;;;5058255;28;20209;-62
2022/01/25 10:04:04;;;;;;;22.60;15.63;;;4.90;99.90;;;;;;5058076;28;20564;-62
2022/01/25 10:06:33;;;;;;;21.07;16.20;;;5.00;99.90;;;;;;5058383;28;20672;-62
2022/01/25 10:09:00;;;;;;;22.03;14.70;;;4.90;99.90;;;;;;5058131;28;20720;-62
2022/01/25 10:11:27;;;;;;;24.67;15.73;;;5.00;99.90;;;;;;5058247;28;20205;-62
2022/01/25 10:13:57;;;;;;;26.90;16.27;;;5.00;99.90;;;;;;5057926;28;20236;-62
2022/01/25 10:16:31;;;;;;;22.00;16.30;;;5.10;99.90;;;;;;5057959;28;20692;-62
2022/01/25 10:19:00;;;;;;;25.10;16.07;;;5.40;99.90;;;;;;5058085;28;20711;-62
2022/01/25 10:21:30;;;;;;;22.23;15.67;;;5.60;99.90;;;;;;5058291;28;20205;-62
2022/01/25 10:24:03;;;;;;;21.93;15.07;;;5.60;99.90;;;;;;5057761;28;20209;-62
2022/01/25 10:26:31;;;;;;;27.47;15.43;;;5.80;99.90;;;;;;5057957;28;20292;-62
2022/01/25 10:28:58;;;;;;;26.20;17.33;;;5.90;99.90;;;;;;5058329;28;20225;-61
2022/01/25 10:31:35;;;;;;;20.03;15.43;;;5.80;99.90;;;;;;5058175;28;20572;-61
2022/01/25 10:34:04;;;;;;;22.80;16.40;;;5.70;99.90;;;;;;5057825;28;20228;-61
2022/01/25 10:36:31;;;;;;;21.03;16.40;;;5.50;99.90;;;;;;5057734;28;20216;-61
2022/01/25 10:38:58;;;;;;;22.50;15.97;;;5.30;99.90;;;;;;5057734;28;20233;-62
2022/01/25 10:41:27;;;;;;;23.17;16.00;;;5.30;99.90;;;;;;5058035;28;20210;-61
2022/01/25 10:43:56;;;;;;;22.93;16.40;;;5.30;99.90;;;;;;5054581;28;20209;-58
2022/01/25 10:46:26;;;;;;;24.10;16.93;;;5.20;99.90;;;;;;5057431;28;20634;-61
2022/01/25 10:48:55;;;;;;;22.90;15.73;;;5.00;99.90;;;;;;5057751;28;20264;-62
2022/01/25 10:51:26;;;;;;;25.63;16.63;;;5.10;99.90;;;;;;5057578;28;20205;-62
2022/01/25 10:54:07;;;;;;;23.40;15.77;;;5.00;99.90;;;;;;5057273;28;20229;-63
2022/01/25 10:56:46;;;;;;;20.20;15.30;;;5.00;99.90;;;;;;5057433;28;20232;-63
2022/01/25 10:59:16;;;;;;;25.33;15.83;;;5.10;99.90;;;;;;5057775;28;20232;-65
2022/01/25 11:01:49;;;;;;;20.70;15.50;;;5.50;99.90;;;;;;5057575;28;20205;-63
2022/01/25 11:04:17;;;;;;;25.57;15.13;;;5.90;99.90;;;;;;5057394;28;20197;-63
2022/01/25 11:06:46;;;;;;;22.27;15.10;;;6.10;99.90;;;;;;5056384;28;20552;-60
2022/01/25 11:09:15;;;;;;;18.60;14.37;;;6.20;99.90;;;;;;5054571;28;20245;-63
2022/01/25 11:11:47;;;;;;;26.43;18.93;;;6.10;99.90;;;;;;5054343;28;20209;-65
2022/01/25 11:17:00;;;;;;;20.37;14.83;;;6.50;99.90;;;;;;5054322;28;20204;-64
2022/01/25 11:19:27;;;;;;;21.40;14.77;;;6.60;99.90;;;;;;5054176;28;20225;-63
2022/01/25 11:21:58;;;;;;;20.00;15.43;;;6.50;99.90;;;;;;5054070;28;20205;-63
2022/01/25 11:24:26;;;;;;;20.03;15.60;;;6.70;99.90;;;;;;5053971;28;20201;-65
2022/01/25 11:26:54;;;;;;;19.23;14.73;;;6.70;99.90;;;;;;5053579;28;20271;-64
2022/01/25 11:29:21;;;;;;;19.83;14.90;;;6.50;99.90;;;;;;5054248;28;20225;-62
2022/01/25 11:31:52;;;;;;;19.03;14.63;;;6.50;99.90;;;;;;5054249;28;20686;-62
2022/01/25 11:34:23;;;;;;;21.33;15.37;;;6.60;99.90;;;;;;5053634;28;20632;-66
2022/01/25 11:36:55;;;;;;;20.37;15.37;;;6.80;99.90;;;;;;5053848;28;20296;-62
2022/01/25 11:39:24;;;;;;;19.97;14.23;;;7.00;99.90;;;;;;5053609;28;20226;-66
2022/01/25 11:41:51;;;;;;;19.50;15.47;;;6.90;99.90;;;;;;5054050;28;20610;-65
2022/01/25 11:44:21;;;;;;;19.53;16.00;;;6.70;99.90;;;;;;5054880;28;20210;-67
2022/01/25 11:46:50;;;;;;;22.00;17.07;;;6.80;99.90;;;;;;5053784;28;20206;-65
2022/01/25 11:49:19;;;;;;;20.77;15.80;;;7.00;99.90;;;;;;5053938;28;20674;-67
2022/01/25 11:51:46;;;;;;;20.00;15.57;;;7.00;99.90;;;;;;5053740;28;20208;-66
2022/01/25 11:54:14;;;;;;;25.90;20.33;;;7.20;99.90;;;;;;5052746;28;20234;-65
2022/01/25 11:56:42;;;;;;;23.63;18.43;;;7.40;99.90;;;;;;5053877;28;20220;-65
2022/01/25 11:59:13;;;;;;;21.17;15.27;;;7.60;99.90;;;;;;5053957;28;20322;-65
2022/01/25 12:01:40;;;;;;;22.30;15.63;;;7.70;99.90;;;;;;5054270;28;20209;-64
2022/01/25 12:04:10;;;;;;;20.33;15.07;;;7.90;99.90;;;;;;5053596;28;20669;-66
2022/01/25 12:06:43;;;;;;;20.90;15.40;;;7.90;99.90;;;;;;5053654;28;20218;-66
2022/01/25 12:09:18;;;;;;;21.40;15.33;;;7.70;99.90;;;;;;5053876;28;20233;-64
2022/01/25 12:11:50;;;;;;;25.80;17.33;;;7.50;99.90;;;;;;5054340;28;20209;-66
2022/01/25 12:14:26;;;;;;;19.10;15.53;;;7.60;99.90;;;;;;5053399;28;20644;-64
2022/01/25 12:16:57;;;;;;;20.63;16.03;;;7.50;99.90;;;;;;5053250;28;20673;-65
2022/01/25 12:19:35;;;;;;;23.40;15.47;;;7.50;99.90;;;;;;5052104;28;20229;-66
2022/01/25 12:22:04;;;;;;;21.60;16.17;;;7.20;99.90;;;;;;5053283;28;20668;-63
2022/01/25 12:24:36;;;;;;;19.67;15.43;;;7.00;99.90;;;;;;5056233;28;20201;-66
2022/01/25 12:27:10;;;;;;;24.90;17.37;;;7.10;99.90;;;;;;5060565;28;20206;-68
2022/01/25 12:29:40;;;;;;;21.20;15.93;;;7.10;99.90;;;;;;5053436;28;20264;-63
2022/01/25 12:32:27;;;;;;;24.67;18.03;;;7.10;99.90;;;;;;5053089;28;20209;-62
2022/01/25 12:35:04;;;;;;;21.60;16.87;;;7.00;99.90;;;;;;5052853;28;20286;-62
2022/01/25 12:38:00;;;;;;;23.80;17.40;;;7.00;99.90;;;;;;5052539;28;20206;-61
2022/01/25 12:40:46;;;;;;;22.20;16.47;;;7.10;99.90;;;;;;5052889;28;20206;-62
2022/01/25 12:43:19;;;;;;;23.10;16.87;;;7.10;99.90;;;;;;5052751;28;20202;-62
2022/01/25 12:45:50;;;;;;;21.40;17.43;;;7.20;99.90;;;;;;5052698;28;20252;-62
2022/01/25 12:48:19;;;;;;;22.23;17.17;;;7.30;99.90;;;;;;5052728;28;20244;-62
2022/01/25 12:50:49;;;;;;;24.57;18.23;;;7.50;99.90;;;;;;5052606;28;20209;-60
2022/01/25 12:53:18;;;;;;;22.03;18.30;;;7.70;99.90;;;;;;5051960;28;20604;-62
2022/01/25 12:55:47;;;;;;;21.63;17.43;;;7.90;99.90;;;;;;5052398;28;20205;-62
2022/01/25 12:58:15;;;;;;;22.23;17.60;;;8.20;99.90;;;;;;5052284;28;20794;-62
2022/01/25 13:00:46;;;;;;;23.20;18.13;;;8.40;99.90;;;;;;5052758;28;20267;-62
2022/01/25 13:03:18;;;;;;;23.70;18.07;;;8.40;99.90;;;;;;5052908;28;20256;-62
2022/01/25 13:05:47;;;;;;;26.47;17.60;;;8.40;99.90;;;;;;5052850;28;20209;-62
2022/01/25 13:08:16;;;;;;;23.93;17.67;;;8.40;99.90;;;;;;5052200;28;20279;-62
2022/01/25 13:10:42;;;;;;;22.97;17.50;;;8.30;99.90;;;;;;5052527;28;20201;-63
2022/01/25 13:13:21;;;;;;;23.97;17.07;;;8.10;99.90;;;;;;5052077;28;20225;-62
2022/01/25 13:15:56;;;;;;;22.40;18.20;;;8.00;99.90;;;;;;5052723;28;20292;-62
2022/01/25 13:18:26;;;;;;;22.13;17.50;;;7.80;99.90;;;;;;5052373;28;20712;-62
2022/01/25 13:21:06;;;;;;;25.07;17.73;;;7.90;99.90;;;;;;5052202;28;20205;-62
2022/01/25 13:23:33;;;;;;;24.33;19.60;;;8.00;99.90;;;;;;5052099;28;20614;-62
2022/01/25 13:26:10;;;;;;;22.83;17.20;;;8.00;99.90;;;;;;5052051;28;20248;-62
2022/01/25 13:28:52;;;;;;;27.27;19.17;;;8.10;99.90;;;;;;5053733;28;20664;-62
2022/01/25 13:31:24;;;;;;;24.83;19.33;;;8.20;99.90;;;;;;5053892;28;20255;-62
2022/01/25 13:33:53;;;;;;;28.10;19.53;;;8.30;99.90;;;;;;5053348;28;20228;-62
2022/01/25 13:36:22;;;;;;;27.70;22.70;;;8.30;99.90;;;;;;5052335;28;20524;-62
2022/01/25 13:38:50;;;;;;;29.13;20.03;;;8.10;99.90;;;;;;5051854;28;20749;-63
2022/01/25 13:41:23;;;;;;;26.07;18.30;;;7.90;99.90;;;;;;5052024;28;20590;-62
2022/01/25 13:46:40;;;;;;;28.13;20.50;;;7.70;99.90;;;;;;5052228;28;20205;-62
2022/01/25 13:49:11;;;;;;;29.77;20.63;;;7.40;99.90;;;;;;5051910;28;20229;-62
2022/01/25 13:51:41;;;;;;;28.60;21.27;;;7.00;99.90;;;;;;5052077;28;20202;-68
2022/01/25 13:54:08;;;;;;;30.40;21.13;;;6.50;99.90;;;;;;5051538;28;20218;-62
2022/01/25 13:56:36;;;;;;;31.33;22.60;;;6.10;99.90;;;;;;5051281;28;20216;-62
2022/01/25 13:59:04;;;;;;;31.43;23.50;;;5.80;99.90;;;;;;5051182;28;20229;-62
2022/01/25 14:01:32;;;;;;;36.60;24.27;;;5.90;99.90;;;;;;5051415;28;20308;-61
2022/01/25 14:04:02;;;;;;;34.30;25.07;;;6.00;99.90;;;;;;5051502;28;20201;-62